sensor_id;sensor_type;location;lat;lon;timestamp;P1;durP1;ratioP1;P2;durP2;ratioP2
71606;SDS011;60641;53.556;9.914;2024-01-06T00:00:30;7.40;;;2.90;;
71606;SDS011;60641;53.556;9.914;2024-01-06T00:03:16;9.90;;;3.40;;
71606;SDS011;60641;53.556;9.914;2024-01-06T00:05:43;7.90;;;2.70;;
71606;SDS011;60641;53.556;9.914;2024-01-06T00:08:09;7.70;;;2.80;;
71606;SDS011;60641;53.556;9.914;2024-01-06T00:10:36;7.10;;;2.40;;
71606;SDS011;60641;53.556;9.914;2024-01-06T00:13:02;9.30;;;4.20;;
71606;SDS011;60641;53.556;9.914;2024-01-06T00:15:29;9.20;;;3.50;;
71606;SDS011;60641;53.556;9.914;2024-01-06T00:17:55;7.30;;;3.00;;
71606;SDS011;60641;53.556;9.914;2024-01-06T00:20:22;8.90;;;3.20;;
71606;SDS011;60641;53.556;9.914;2024-01-06T00:22:48;8.90;;;3.40;;
71606;SDS011;60641;53.556;9.914;2024-01-06T00:25:15;8.50;;;3.40;;
71606;SDS011;60641;53.556;9.914;2024-01-06T00:27:41;7.90;;;3.20;;
71606;SDS011;60641;53.556;9.914;2024-01-06T00:30:08;8.50;;;3.20;;
71606;SDS011;60641;53.556;9.914;2024-01-06T00:32:34;8.70;;;3.00;;
71606;SDS011;60641;53.556;9.914;2024-01-06T00:35:01;8.10;;;3.50;;
71606;SDS011;60641;53.556;9.914;2024-01-06T00:37:28;10.60;;;3.80;;
71606;SDS011;60641;53.556;9.914;2024-01-06T00:39:54;10.10;;;3.50;;
71606;SDS011;60641;53.556;9.914;2024-01-06T00:42:21;9.40;;;4.00;;
71606;SDS011;60641;53.556;9.914;2024-01-06T00:44:47;8.40;;;3.20;;
71606;SDS011;60641;53.556;9.914;2024-01-06T00:47:14;9.50;;;3.20;;
71606;SDS011;60641;53.556;9.914;2024-01-06T00:49:40;8.50;;;3.60;;
71606;SDS011;60641;53.556;9.914;2024-01-06T00:52:07;8.40;;;3.20;;
71606;SDS011;60641;53.556;9.914;2024-01-06T00:54:33;8.10;;;2.90;;
71606;SDS011;60641;53.556;9.914;2024-01-06T00:56:59;7.80;;;2.90;;
71606;SDS011;60641;53.556;9.914;2024-01-06T00:59:26;9.40;;;3.20;;
71606;SDS011;60641;53.556;9.914;2024-01-06T01:01:53;9.60;;;4.30;;
71606;SDS011;60641;53.556;9.914;2024-01-06T01:04:19;9.00;;;3.40;;
71606;SDS011;60641;53.556;9.914;2024-01-06T01:06:46;9.40;;;3.50;;
71606;SDS011;60641;53.556;9.914;2024-01-06T01:09:12;8.30;;;3.30;;
71606;SDS011;60641;53.556;9.914;2024-01-06T01:11:40;9.00;;;3.30;;
71606;SDS011;60641;53.556;9.914;2024-01-06T01:14:07;8.40;;;3.60;;
71606;SDS011;60641;53.556;9.914;2024-01-06T01:16:34;9.70;;;3.70;;
71606;SDS011;60641;53.556;9.914;2024-01-06T01:19:00;8.10;;;3.40;;
71606;SDS011;60641;53.556;9.914;2024-01-06T01:21:28;8.10;;;2.80;;
71606;SDS011;60641;53.556;9.914;2024-01-06T01:23:54;9.50;;;3.10;;
71606;SDS011;60641;53.556;9.914;2024-01-06T01:26:21;9.50;;;3.40;;
71606;SDS011;60641;53.556;9.914;2024-01-06T01:28:47;10.00;;;4.30;;
71606;SDS011;60641;53.556;9.914;2024-01-06T01:31:14;7.80;;;3.00;;
71606;SDS011;60641;53.556;9.914;2024-01-06T01:33:40;8.30;;;3.10;;
71606;SDS011;60641;53.556;9.914;2024-01-06T01:36:07;8.70;;;3.00;;
71606;SDS011;60641;53.556;9.914;2024-01-06T01:38:33;8.10;;;3.20;;
71606;SDS011;60641;53.556;9.914;2024-01-06T01:40:59;7.60;;;2.80;;
71606;SDS011;60641;53.556;9.914;2024-01-06T01:43:26;7.80;;;2.80;;
71606;SDS011;60641;53.556;9.914;2024-01-06T01:45:54;7.60;;;3.10;;
71606;SDS011;60641;53.556;9.914;2024-01-06T01:48:22;9.00;;;3.30;;
71606;SDS011;60641;53.556;9.914;2024-01-06T01:50:48;7.80;;;3.10;;
71606;SDS011;60641;53.556;9.914;2024-01-06T01:53:15;8.30;;;3.10;;
71606;SDS011;60641;53.556;9.914;2024-01-06T01:55:42;8.10;;;3.00;;
71606;SDS011;60641;53.556;9.914;2024-01-06T01:58:10;9.60;;;3.30;;
71606;SDS011;60641;53.556;9.914;2024-01-06T02:00:38;9.00;;;3.30;;
71606;SDS011;60641;53.556;9.914;2024-01-06T02:03:04;9.10;;;3.70;;
71606;SDS011;60641;53.556;9.914;2024-01-06T02:05:31;7.10;;;2.80;;
71606;SDS011;60641;53.556;9.914;2024-01-06T02:07:57;8.60;;;3.20;;
71606;SDS011;60641;53.556;9.914;2024-01-06T02:10:24;9.00;;;3.20;;
71606;SDS011;60641;53.556;9.914;2024-01-06T02:12:50;7.60;;;3.30;;
71606;SDS011;60641;53.556;9.914;2024-01-06T02:15:18;8.60;;;3.30;;
71606;SDS011;60641;53.556;9.914;2024-01-06T02:17:45;5.40;;;2.10;;
71606;SDS011;60641;53.556;9.914;2024-01-06T02:20:11;8.60;;;3.40;;
71606;SDS011;60641;53.556;9.914;2024-01-06T02:22:39;9.30;;;3.60;;
71606;SDS011;60641;53.556;9.914;2024-01-06T02:25:06;8.90;;;3.30;;
71606;SDS011;60641;53.556;9.914;2024-01-06T02:27:38;8.90;;;3.20;;
71606;SDS011;60641;53.556;9.914;2024-01-06T02:30:05;7.70;;;3.30;;
71606;SDS011;60641;53.556;9.914;2024-01-06T02:32:33;7.70;;;3.00;;
71606;SDS011;60641;53.556;9.914;2024-01-06T02:34:59;9.10;;;3.40;;
71606;SDS011;60641;53.556;9.914;2024-01-06T02:37:26;9.30;;;3.80;;
71606;SDS011;60641;53.556;9.914;2024-01-06T02:39:52;8.60;;;2.90;;
71606;SDS011;60641;53.556;9.914;2024-01-06T02:42:19;10.30;;;4.30;;
71606;SDS011;60641;53.556;9.914;2024-01-06T02:44:45;10.00;;;4.10;;
71606;SDS011;60641;53.556;9.914;2024-01-06T02:47:12;7.70;;;2.70;;
71606;SDS011;60641;53.556;9.914;2024-01-06T02:49:38;8.40;;;3.20;;
71606;SDS011;60641;53.556;9.914;2024-01-06T02:52:05;9.20;;;3.50;;
71606;SDS011;60641;53.556;9.914;2024-01-06T02:54:31;9.40;;;4.20;;
71606;SDS011;60641;53.556;9.914;2024-01-06T02:56:58;9.50;;;3.70;;
71606;SDS011;60641;53.556;9.914;2024-01-06T02:59:24;8.40;;;3.30;;
71606;SDS011;60641;53.556;9.914;2024-01-06T03:01:51;8.50;;;3.50;;
71606;SDS011;60641;53.556;9.914;2024-01-06T03:04:17;9.00;;;3.40;;
71606;SDS011;60641;53.556;9.914;2024-01-06T03:06:43;14.90;;;3.70;;
71606;SDS011;60641;53.556;9.914;2024-01-06T03:09:12;8.20;;;3.20;;
71606;SDS011;60641;53.556;9.914;2024-01-06T03:11:38;9.70;;;4.00;;
71606;SDS011;60641;53.556;9.914;2024-01-06T03:14:05;8.60;;;3.80;;
71606;SDS011;60641;53.556;9.914;2024-01-06T03:16:31;9.20;;;3.80;;
71606;SDS011;60641;53.556;9.914;2024-01-06T03:18:59;9.40;;;3.70;;
71606;SDS011;60641;53.556;9.914;2024-01-06T03:21:26;8.40;;;3.20;;
71606;SDS011;60641;53.556;9.914;2024-01-06T03:23:52;9.40;;;4.20;;
71606;SDS011;60641;53.556;9.914;2024-01-06T03:26:21;8.80;;;3.60;;
71606;SDS011;60641;53.556;9.914;2024-01-06T03:28:49;8.50;;;3.30;;
71606;SDS011;60641;53.556;9.914;2024-01-06T03:31:16;9.10;;;3.90;;
71606;SDS011;60641;53.556;9.914;2024-01-06T03:33:43;10.80;;;5.20;;
71606;SDS011;60641;53.556;9.914;2024-01-06T03:36:12;8.60;;;3.40;;
71606;SDS011;60641;53.556;9.914;2024-01-06T03:38:38;9.00;;;3.60;;
71606;SDS011;60641;53.556;9.914;2024-01-06T03:41:05;9.70;;;4.00;;
71606;SDS011;60641;53.556;9.914;2024-01-06T03:43:31;11.70;;;4.60;;
71606;SDS011;60641;53.556;9.914;2024-01-06T03:45:57;9.80;;;3.40;;
71606;SDS011;60641;53.556;9.914;2024-01-06T03:48:26;10.30;;;5.00;;
71606;SDS011;60641;53.556;9.914;2024-01-06T03:50:52;11.30;;;4.70;;
71606;SDS011;60641;53.556;9.914;2024-01-06T03:53:19;10.50;;;4.80;;
71606;SDS011;60641;53.556;9.914;2024-01-06T03:55:45;9.80;;;4.00;;
71606;SDS011;60641;53.556;9.914;2024-01-06T03:58:12;9.60;;;4.20;;
71606;SDS011;60641;53.556;9.914;2024-01-06T04:00:38;7.70;;;2.90;;
71606;SDS011;60641;53.556;9.914;2024-01-06T04:03:05;11.10;;;5.00;;
71606;SDS011;60641;53.556;9.914;2024-01-06T04:05:32;10.50;;;4.30;;
71606;SDS011;60641;53.556;9.914;2024-01-06T04:07:59;9.90;;;4.20;;
71606;SDS011;60641;53.556;9.914;2024-01-06T04:10:25;10.30;;;4.80;;
71606;SDS011;60641;53.556;9.914;2024-01-06T04:12:52;10.00;;;4.40;;
71606;SDS011;60641;53.556;9.914;2024-01-06T04:15:18;9.30;;;3.90;;
71606;SDS011;60641;53.556;9.914;2024-01-06T04:17:47;9.00;;;3.80;;
71606;SDS011;60641;53.556;9.914;2024-01-06T04:20:14;10.20;;;4.40;;
71606;SDS011;60641;53.556;9.914;2024-01-06T04:22:41;10.50;;;4.40;;
71606;SDS011;60641;53.556;9.914;2024-01-06T04:25:07;8.60;;;3.10;;
71606;SDS011;60641;53.556;9.914;2024-01-06T04:27:34;8.80;;;3.10;;
71606;SDS011;60641;53.556;9.914;2024-01-06T04:30:01;8.60;;;3.80;;
71606;SDS011;60641;53.556;9.914;2024-01-06T04:32:28;8.40;;;3.70;;
71606;SDS011;60641;53.556;9.914;2024-01-06T04:34:55;9.30;;;3.60;;
71606;SDS011;60641;53.556;9.914;2024-01-06T04:37:23;10.80;;;4.00;;
71606;SDS011;60641;53.556;9.914;2024-01-06T04:39:49;8.40;;;3.40;;
71606;SDS011;60641;53.556;9.914;2024-01-06T04:42:16;9.30;;;3.90;;
71606;SDS011;60641;53.556;9.914;2024-01-06T04:44:42;9.40;;;3.80;;
71606;SDS011;60641;53.556;9.914;2024-01-06T04:47:09;7.80;;;3.60;;
71606;SDS011;60641;53.556;9.914;2024-01-06T04:49:35;10.10;;;4.50;;
71606;SDS011;60641;53.556;9.914;2024-01-06T04:52:01;9.30;;;3.60;;
71606;SDS011;60641;53.556;9.914;2024-01-06T04:54:28;9.40;;;3.50;;
71606;SDS011;60641;53.556;9.914;2024-01-06T04:56:54;9.50;;;3.90;;
71606;SDS011;60641;53.556;9.914;2024-01-06T04:59:22;8.40;;;3.40;;
71606;SDS011;60641;53.556;9.914;2024-01-06T05:01:48;9.90;;;4.10;;
71606;SDS011;60641;53.556;9.914;2024-01-06T05:04:15;9.40;;;3.80;;
71606;SDS011;60641;53.556;9.914;2024-01-06T05:06:41;9.40;;;3.80;;
71606;SDS011;60641;53.556;9.914;2024-01-06T05:09:07;10.00;;;4.30;;
71606;SDS011;60641;53.556;9.914;2024-01-06T05:11:34;8.90;;;3.60;;
71606;SDS011;60641;53.556;9.914;2024-01-06T05:14:01;9.30;;;3.90;;
71606;SDS011;60641;53.556;9.914;2024-01-06T05:16:27;10.10;;;4.00;;
71606;SDS011;60641;53.556;9.914;2024-01-06T05:18:54;10.10;;;4.30;;
71606;SDS011;60641;53.556;9.914;2024-01-06T05:21:20;9.10;;;3.90;;
71606;SDS011;60641;53.556;9.914;2024-01-06T05:23:47;12.00;;;5.50;;
71606;SDS011;60641;53.556;9.914;2024-01-06T05:26:13;11.40;;;4.30;;
71606;SDS011;60641;53.556;9.914;2024-01-06T05:28:40;9.40;;;3.50;;
71606;SDS011;60641;53.556;9.914;2024-01-06T05:31:06;9.30;;;3.50;;
71606;SDS011;60641;53.556;9.914;2024-01-06T05:33:33;8.80;;;3.60;;
71606;SDS011;60641;53.556;9.914;2024-01-06T05:35:59;9.90;;;3.70;;
71606;SDS011;60641;53.556;9.914;2024-01-06T05:38:25;9.60;;;3.90;;
71606;SDS011;60641;53.556;9.914;2024-01-06T05:40:52;8.90;;;3.20;;
71606;SDS011;60641;53.556;9.914;2024-01-06T05:43:19;10.30;;;4.00;;
71606;SDS011;60641;53.556;9.914;2024-01-06T05:45:45;12.30;;;4.90;;
71606;SDS011;60641;53.556;9.914;2024-01-06T05:48:11;10.50;;;3.70;;
71606;SDS011;60641;53.556;9.914;2024-01-06T05:50:38;11.00;;;4.80;;
71606;SDS011;60641;53.556;9.914;2024-01-06T05:53:07;10.10;;;4.00;;
71606;SDS011;60641;53.556;9.914;2024-01-06T05:55:34;11.90;;;6.10;;
71606;SDS011;60641;53.556;9.914;2024-01-06T05:58:00;12.90;;;5.00;;
71606;SDS011;60641;53.556;9.914;2024-01-06T06:00:27;12.70;;;5.10;;
71606;SDS011;60641;53.556;9.914;2024-01-06T06:02:53;12.20;;;4.60;;
71606;SDS011;60641;53.556;9.914;2024-01-06T06:05:20;11.00;;;4.60;;
71606;SDS011;60641;53.556;9.914;2024-01-06T06:07:47;11.70;;;5.00;;
71606;SDS011;60641;53.556;9.914;2024-01-06T06:10:13;11.10;;;4.50;;
71606;SDS011;60641;53.556;9.914;2024-01-06T06:12:42;11.40;;;4.70;;
71606;SDS011;60641;53.556;9.914;2024-01-06T06:15:09;9.50;;;3.70;;
71606;SDS011;60641;53.556;9.914;2024-01-06T06:17:36;10.60;;;4.50;;
71606;SDS011;60641;53.556;9.914;2024-01-06T06:20:02;11.50;;;4.00;;
71606;SDS011;60641;53.556;9.914;2024-01-06T06:22:29;10.90;;;4.70;;
71606;SDS011;60641;53.556;9.914;2024-01-06T06:24:56;11.10;;;5.00;;
71606;SDS011;60641;53.556;9.914;2024-01-06T06:27:23;10.00;;;4.60;;
71606;SDS011;60641;53.556;9.914;2024-01-06T06:29:50;11.70;;;4.90;;
71606;SDS011;60641;53.556;9.914;2024-01-06T06:32:16;11.40;;;5.40;;
71606;SDS011;60641;53.556;9.914;2024-01-06T06:34:43;12.80;;;6.40;;
71606;SDS011;60641;53.556;9.914;2024-01-06T06:37:09;10.20;;;4.30;;
71606;SDS011;60641;53.556;9.914;2024-01-06T06:39:36;12.90;;;4.70;;
71606;SDS011;60641;53.556;9.914;2024-01-06T06:42:02;9.30;;;3.50;;
71606;SDS011;60641;53.556;9.914;2024-01-06T06:44:32;13.80;;;6.10;;
71606;SDS011;60641;53.556;9.914;2024-01-06T06:46:59;11.70;;;4.40;;
71606;SDS011;60641;53.556;9.914;2024-01-06T06:49:26;11.80;;;4.80;;
71606;SDS011;60641;53.556;9.914;2024-01-06T06:51:52;12.10;;;5.40;;
71606;SDS011;60641;53.556;9.914;2024-01-06T06:54:19;12.10;;;5.50;;
71606;SDS011;60641;53.556;9.914;2024-01-06T06:56:45;10.30;;;4.30;;
71606;SDS011;60641;53.556;9.914;2024-01-06T06:59:12;12.70;;;5.80;;
71606;SDS011;60641;53.556;9.914;2024-01-06T07:01:38;9.30;;;3.70;;
71606;SDS011;60641;53.556;9.914;2024-01-06T07:04:05;12.20;;;5.10;;
71606;SDS011;60641;53.556;9.914;2024-01-06T07:06:31;11.30;;;4.90;;
71606;SDS011;60641;53.556;9.914;2024-01-06T07:08:58;11.50;;;5.00;;
71606;SDS011;60641;53.556;9.914;2024-01-06T07:11:25;11.40;;;4.40;;
71606;SDS011;60641;53.556;9.914;2024-01-06T07:13:51;12.00;;;6.10;;
71606;SDS011;60641;53.556;9.914;2024-01-06T07:16:18;13.70;;;5.60;;
71606;SDS011;60641;53.556;9.914;2024-01-06T07:18:45;10.90;;;4.80;;
71606;SDS011;60641;53.556;9.914;2024-01-06T07:21:12;13.70;;;5.90;;
71606;SDS011;60641;53.556;9.914;2024-01-06T07:23:39;13.90;;;6.20;;
71606;SDS011;60641;53.556;9.914;2024-01-06T07:26:05;14.30;;;5.60;;
71606;SDS011;60641;53.556;9.914;2024-01-06T07:28:32;13.00;;;5.10;;
71606;SDS011;60641;53.556;9.914;2024-01-06T07:31:00;12.30;;;5.00;;
71606;SDS011;60641;53.556;9.914;2024-01-06T07:33:26;12.30;;;5.80;;
71606;SDS011;60641;53.556;9.914;2024-01-06T07:35:53;12.30;;;6.50;;
71606;SDS011;60641;53.556;9.914;2024-01-06T07:38:20;12.10;;;5.40;;
71606;SDS011;60641;53.556;9.914;2024-01-06T07:40:46;10.50;;;4.70;;
71606;SDS011;60641;53.556;9.914;2024-01-06T07:43:13;11.80;;;5.00;;
71606;SDS011;60641;53.556;9.914;2024-01-06T07:45:43;11.50;;;4.60;;
71606;SDS011;60641;53.556;9.914;2024-01-06T07:48:10;12.30;;;5.90;;
71606;SDS011;60641;53.556;9.914;2024-01-06T07:50:36;13.00;;;5.90;;
71606;SDS011;60641;53.556;9.914;2024-01-06T07:53:03;11.30;;;5.00;;
71606;SDS011;60641;53.556;9.914;2024-01-06T07:55:29;12.50;;;5.40;;
71606;SDS011;60641;53.556;9.914;2024-01-06T07:57:56;14.60;;;6.70;;
71606;SDS011;60641;53.556;9.914;2024-01-06T08:00:22;12.90;;;5.10;;
71606;SDS011;60641;53.556;9.914;2024-01-06T08:02:49;10.10;;;4.00;;
71606;SDS011;60641;53.556;9.914;2024-01-06T08:05:17;12.20;;;5.80;;
71606;SDS011;60641;53.556;9.914;2024-01-06T08:07:44;12.70;;;5.60;;
71606;SDS011;60641;53.556;9.914;2024-01-06T08:10:10;10.90;;;4.80;;
71606;SDS011;60641;53.556;9.914;2024-01-06T08:12:37;11.80;;;5.20;;
71606;SDS011;60641;53.556;9.914;2024-01-06T08:15:03;12.30;;;4.50;;
71606;SDS011;60641;53.556;9.914;2024-01-06T08:17:30;12.00;;;4.80;;
71606;SDS011;60641;53.556;9.914;2024-01-06T08:19:57;10.80;;;4.10;;
71606;SDS011;60641;53.556;9.914;2024-01-06T08:22:25;12.30;;;5.50;;
71606;SDS011;60641;53.556;9.914;2024-01-06T08:24:52;12.70;;;5.50;;
71606;SDS011;60641;53.556;9.914;2024-01-06T08:27:18;11.00;;;5.10;;
71606;SDS011;60641;53.556;9.914;2024-01-06T08:29:45;11.80;;;4.70;;
71606;SDS011;60641;53.556;9.914;2024-01-06T08:32:20;12.40;;;5.40;;
71606;SDS011;60641;53.556;9.914;2024-01-06T08:34:46;11.30;;;4.60;;
71606;SDS011;60641;53.556;9.914;2024-01-06T08:37:13;11.50;;;6.20;;
71606;SDS011;60641;53.556;9.914;2024-01-06T08:39:42;11.10;;;4.70;;
71606;SDS011;60641;53.556;9.914;2024-01-06T08:42:09;10.30;;;3.80;;
71606;SDS011;60641;53.556;9.914;2024-01-06T08:44:35;11.20;;;4.30;;
71606;SDS011;60641;53.556;9.914;2024-01-06T08:47:01;13.10;;;5.70;;
71606;SDS011;60641;53.556;9.914;2024-01-06T08:49:29;14.10;;;5.80;;
71606;SDS011;60641;53.556;9.914;2024-01-06T08:51:55;13.30;;;4.60;;
71606;SDS011;60641;53.556;9.914;2024-01-06T08:54:25;11.90;;;5.40;;
71606;SDS011;60641;53.556;9.914;2024-01-06T08:56:51;11.20;;;4.60;;
71606;SDS011;60641;53.556;9.914;2024-01-06T08:59:18;10.70;;;4.80;;
71606;SDS011;60641;53.556;9.914;2024-01-06T09:01:46;10.90;;;5.20;;
71606;SDS011;60641;53.556;9.914;2024-01-06T09:04:13;11.50;;;4.60;;
71606;SDS011;60641;53.556;9.914;2024-01-06T09:06:39;11.70;;;5.50;;
71606;SDS011;60641;53.556;9.914;2024-01-06T09:09:07;10.10;;;4.60;;
71606;SDS011;60641;53.556;9.914;2024-01-06T09:11:35;10.70;;;3.90;;
71606;SDS011;60641;53.556;9.914;2024-01-06T09:14:02;15.20;;;5.20;;
71606;SDS011;60641;53.556;9.914;2024-01-06T09:16:28;10.10;;;4.30;;
71606;SDS011;60641;53.556;9.914;2024-01-06T09:18:55;11.60;;;6.00;;
71606;SDS011;60641;53.556;9.914;2024-01-06T09:21:22;13.70;;;5.20;;
71606;SDS011;60641;53.556;9.914;2024-01-06T09:23:49;10.80;;;4.30;;
71606;SDS011;60641;53.556;9.914;2024-01-06T09:26:15;11.10;;;4.10;;
71606;SDS011;60641;53.556;9.914;2024-01-06T09:28:42;12.90;;;4.70;;
71606;SDS011;60641;53.556;9.914;2024-01-06T09:31:09;12.60;;;5.30;;
71606;SDS011;60641;53.556;9.914;2024-01-06T09:33:35;11.90;;;4.20;;
71606;SDS011;60641;53.556;9.914;2024-01-06T09:36:01;10.90;;;4.70;;
71606;SDS011;60641;53.556;9.914;2024-01-06T09:38:28;12.40;;;4.70;;
71606;SDS011;60641;53.556;9.914;2024-01-06T09:40:54;12.30;;;5.40;;
71606;SDS011;60641;53.556;9.914;2024-01-06T09:43:21;12.40;;;5.10;;
71606;SDS011;60641;53.556;9.914;2024-01-06T09:45:48;10.30;;;4.00;;
71606;SDS011;60641;53.556;9.914;2024-01-06T09:48:23;10.30;;;4.50;;
71606;SDS011;60641;53.556;9.914;2024-01-06T09:50:56;13.10;;;5.10;;
71606;SDS011;60641;53.556;9.914;2024-01-06T09:53:23;11.30;;;4.40;;
71606;SDS011;60641;53.556;9.914;2024-01-06T09:55:55;10.20;;;4.70;;
71606;SDS011;60641;53.556;9.914;2024-01-06T09:58:22;10.90;;;4.10;;
71606;SDS011;60641;53.556;9.914;2024-01-06T10:00:48;10.90;;;4.80;;
71606;SDS011;60641;53.556;9.914;2024-01-06T10:03:15;9.80;;;4.30;;
71606;SDS011;60641;53.556;9.914;2024-01-06T10:05:42;11.60;;;5.00;;
71606;SDS011;60641;53.556;9.914;2024-01-06T10:08:09;12.70;;;5.20;;
71606;SDS011;60641;53.556;9.914;2024-01-06T10:10:35;10.50;;;4.70;;
71606;SDS011;60641;53.556;9.914;2024-01-06T10:13:01;11.80;;;4.80;;
71606;SDS011;60641;53.556;9.914;2024-01-06T10:15:28;14.20;;;6.00;;
71606;SDS011;60641;53.556;9.914;2024-01-06T10:17:55;10.60;;;5.20;;
71606;SDS011;60641;53.556;9.914;2024-01-06T10:20:21;12.60;;;6.30;;
71606;SDS011;60641;53.556;9.914;2024-01-06T10:22:47;13.70;;;5.50;;
71606;SDS011;60641;53.556;9.914;2024-01-06T10:25:14;13.70;;;6.50;;
71606;SDS011;60641;53.556;9.914;2024-01-06T10:27:41;11.90;;;5.20;;
71606;SDS011;60641;53.556;9.914;2024-01-06T10:30:08;11.70;;;4.80;;
71606;SDS011;60641;53.556;9.914;2024-01-06T10:32:35;13.40;;;5.30;;
71606;SDS011;60641;53.556;9.914;2024-01-06T10:35:03;13.70;;;4.80;;
71606;SDS011;60641;53.556;9.914;2024-01-06T10:37:32;11.70;;;4.80;;
71606;SDS011;60641;53.556;9.914;2024-01-06T10:40:08;13.20;;;5.70;;
71606;SDS011;60641;53.556;9.914;2024-01-06T10:42:35;13.60;;;5.70;;
71606;SDS011;60641;53.556;9.914;2024-01-06T10:45:03;12.00;;;5.00;;
71606;SDS011;60641;53.556;9.914;2024-01-06T10:47:30;14.60;;;7.20;;
71606;SDS011;60641;53.556;9.914;2024-01-06T10:49:58;13.60;;;5.10;;
71606;SDS011;60641;53.556;9.914;2024-01-06T10:52:26;10.30;;;4.70;;
71606;SDS011;60641;53.556;9.914;2024-01-06T10:54:54;13.50;;;5.60;;
71606;SDS011;60641;53.556;9.914;2024-01-06T10:57:21;13.30;;;5.60;;
71606;SDS011;60641;53.556;9.914;2024-01-06T10:59:49;13.90;;;5.20;;
71606;SDS011;60641;53.556;9.914;2024-01-06T11:02:17;11.50;;;5.50;;
71606;SDS011;60641;53.556;9.914;2024-01-06T11:04:47;12.10;;;5.20;;
71606;SDS011;60641;53.556;9.914;2024-01-06T11:07:15;12.50;;;5.20;;
71606;SDS011;60641;53.556;9.914;2024-01-06T11:09:44;11.40;;;4.50;;
71606;SDS011;60641;53.556;9.914;2024-01-06T11:12:17;12.40;;;4.90;;
71606;SDS011;60641;53.556;9.914;2024-01-06T11:14:44;14.00;;;6.00;;
71606;SDS011;60641;53.556;9.914;2024-01-06T11:17:12;9.80;;;4.30;;
71606;SDS011;60641;53.556;9.914;2024-01-06T11:24:55;10.50;;;4.00;;
71606;SDS011;60641;53.556;9.914;2024-01-06T11:27:23;12.00;;;4.70;;
71606;SDS011;60641;53.556;9.914;2024-01-06T11:29:55;10.20;;;3.60;;
71606;SDS011;60641;53.556;9.914;2024-01-06T11:34:56;10.80;;;4.70;;
71606;SDS011;60641;53.556;9.914;2024-01-06T11:40:07;11.60;;;4.20;;
71606;SDS011;60641;53.556;9.914;2024-01-06T11:42:35;12.00;;;3.80;;
71606;SDS011;60641;53.556;9.914;2024-01-06T11:45:02;9.50;;;3.80;;
71606;SDS011;60641;53.556;9.914;2024-01-06T11:47:32;9.00;;;3.20;;
71606;SDS011;60641;53.556;9.914;2024-01-06T11:49:59;10.90;;;4.30;;
71606;SDS011;60641;53.556;9.914;2024-01-06T11:52:27;10.50;;;4.70;;
71606;SDS011;60641;53.556;9.914;2024-01-06T11:54:54;12.90;;;4.10;;
71606;SDS011;60641;53.556;9.914;2024-01-06T11:57:20;10.00;;;3.50;;
71606;SDS011;60641;53.556;9.914;2024-01-06T11:59:47;11.50;;;4.20;;
71606;SDS011;60641;53.556;9.914;2024-01-06T12:02:14;9.40;;;3.10;;
71606;SDS011;60641;53.556;9.914;2024-01-06T12:04:40;11.00;;;3.30;;
71606;SDS011;60641;53.556;9.914;2024-01-06T12:07:08;8.90;;;3.20;;
71606;SDS011;60641;53.556;9.914;2024-01-06T12:09:35;11.00;;;4.40;;
71606;SDS011;60641;53.556;9.914;2024-01-06T12:12:04;8.90;;;3.30;;
71606;SDS011;60641;53.556;9.914;2024-01-06T12:14:31;13.70;;;4.70;;
71606;SDS011;60641;53.556;9.914;2024-01-06T12:16:58;9.90;;;3.70;;
71606;SDS011;60641;53.556;9.914;2024-01-06T12:19:29;10.10;;;3.40;;
71606;SDS011;60641;53.556;9.914;2024-01-06T12:21:57;10.90;;;3.90;;
71606;SDS011;60641;53.556;9.914;2024-01-06T12:24:23;10.80;;;3.70;;
71606;SDS011;60641;53.556;9.914;2024-01-06T12:26:50;10.60;;;3.80;;
71606;SDS011;60641;53.556;9.914;2024-01-06T12:29:17;11.10;;;4.40;;
71606;SDS011;60641;53.556;9.914;2024-01-06T12:31:45;11.40;;;2.70;;
71606;SDS011;60641;53.556;9.914;2024-01-06T12:34:12;7.20;;;2.80;;
71606;SDS011;60641;53.556;9.914;2024-01-06T12:36:41;8.90;;;3.10;;
71606;SDS011;60641;53.556;9.914;2024-01-06T12:39:12;7.40;;;2.50;;
71606;SDS011;60641;53.556;9.914;2024-01-06T12:41:42;7.30;;;2.70;;
71606;SDS011;60641;53.556;9.914;2024-01-06T12:44:09;10.40;;;3.90;;
71606;SDS011;60641;53.556;9.914;2024-01-06T12:46:35;9.90;;;3.40;;
71606;SDS011;60641;53.556;9.914;2024-01-06T12:49:02;10.30;;;3.60;;
71606;SDS011;60641;53.556;9.914;2024-01-06T12:51:28;9.60;;;2.90;;
71606;SDS011;60641;53.556;9.914;2024-01-06T12:53:55;9.10;;;3.30;;
71606;SDS011;60641;53.556;9.914;2024-01-06T12:56:22;8.10;;;3.10;;
71606;SDS011;60641;53.556;9.914;2024-01-06T12:58:48;6.60;;;2.40;;
71606;SDS011;60641;53.556;9.914;2024-01-06T13:01:15;9.00;;;3.20;;
71606;SDS011;60641;53.556;9.914;2024-01-06T13:03:41;8.30;;;2.80;;
71606;SDS011;60641;53.556;9.914;2024-01-06T13:06:08;8.40;;;3.60;;
71606;SDS011;60641;53.556;9.914;2024-01-06T13:08:35;8.00;;;2.70;;
71606;SDS011;60641;53.556;9.914;2024-01-06T13:11:01;8.60;;;3.20;;
71606;SDS011;60641;53.556;9.914;2024-01-06T13:13:29;8.60;;;2.70;;
71606;SDS011;60641;53.556;9.914;2024-01-06T13:15:57;6.60;;;2.50;;
71606;SDS011;60641;53.556;9.914;2024-01-06T13:18:23;6.60;;;2.50;;
71606;SDS011;60641;53.556;9.914;2024-01-06T13:20:50;8.10;;;3.00;;
71606;SDS011;60641;53.556;9.914;2024-01-06T13:23:16;7.90;;;2.50;;
71606;SDS011;60641;53.556;9.914;2024-01-06T13:25:43;8.50;;;2.70;;
71606;SDS011;60641;53.556;9.914;2024-01-06T13:28:10;7.00;;;2.40;;
71606;SDS011;60641;53.556;9.914;2024-01-06T13:30:38;9.30;;;3.90;;
71606;SDS011;60641;53.556;9.914;2024-01-06T13:33:06;7.80;;;2.40;;
71606;SDS011;60641;53.556;9.914;2024-01-06T13:35:33;9.00;;;3.20;;
71606;SDS011;60641;53.556;9.914;2024-01-06T13:38:00;8.40;;;3.10;;
71606;SDS011;60641;53.556;9.914;2024-01-06T13:40:28;8.30;;;3.10;;
71606;SDS011;60641;53.556;9.914;2024-01-06T13:42:54;8.10;;;2.90;;
71606;SDS011;60641;53.556;9.914;2024-01-06T13:45:20;5.40;;;2.00;;
71606;SDS011;60641;53.556;9.914;2024-01-06T13:47:47;6.40;;;2.50;;
71606;SDS011;60641;53.556;9.914;2024-01-06T13:50:17;9.00;;;2.80;;
71606;SDS011;60641;53.556;9.914;2024-01-06T13:52:44;7.50;;;2.60;;
71606;SDS011;60641;53.556;9.914;2024-01-06T13:55:14;6.80;;;2.40;;
71606;SDS011;60641;53.556;9.914;2024-01-06T13:57:41;6.80;;;2.40;;
71606;SDS011;60641;53.556;9.914;2024-01-06T14:00:11;7.20;;;2.60;;
71606;SDS011;60641;53.556;9.914;2024-01-06T14:02:40;8.00;;;2.70;;
71606;SDS011;60641;53.556;9.914;2024-01-06T14:05:07;7.80;;;2.70;;
71606;SDS011;60641;53.556;9.914;2024-01-06T14:07:35;7.10;;;2.80;;
71606;SDS011;60641;53.556;9.914;2024-01-06T14:10:01;7.40;;;3.00;;
71606;SDS011;60641;53.556;9.914;2024-01-06T14:12:30;10.40;;;3.90;;
71606;SDS011;60641;53.556;9.914;2024-01-06T14:14:57;9.10;;;2.90;;
71606;SDS011;60641;53.556;9.914;2024-01-06T14:17:24;7.50;;;2.80;;
71606;SDS011;60641;53.556;9.914;2024-01-06T14:19:51;7.60;;;2.60;;
71606;SDS011;60641;53.556;9.914;2024-01-06T14:22:18;6.70;;;2.20;;
71606;SDS011;60641;53.556;9.914;2024-01-06T14:24:44;7.20;;;2.50;;
71606;SDS011;60641;53.556;9.914;2024-01-06T14:27:11;7.80;;;3.30;;
71606;SDS011;60641;53.556;9.914;2024-01-06T14:29:38;7.00;;;2.10;;
71606;SDS011;60641;53.556;9.914;2024-01-06T14:32:05;7.70;;;2.40;;
71606;SDS011;60641;53.556;9.914;2024-01-06T14:34:32;6.40;;;2.10;;
71606;SDS011;60641;53.556;9.914;2024-01-06T14:36:58;7.20;;;2.40;;
71606;SDS011;60641;53.556;9.914;2024-01-06T14:39:25;6.60;;;2.50;;
71606;SDS011;60641;53.556;9.914;2024-01-06T14:41:51;6.90;;;2.60;;
71606;SDS011;60641;53.556;9.914;2024-01-06T14:44:18;7.60;;;2.60;;
71606;SDS011;60641;53.556;9.914;2024-01-06T14:46:50;8.40;;;3.40;;
71606;SDS011;60641;53.556;9.914;2024-01-06T14:49:17;8.30;;;3.20;;